sensor_id;sensor_type;location;lat;lon;timestamp;temperature;humidity
63260;DHT22;49390;51.380;0.098;2022-12-10T00:01:59;0.30;99.90
63260;DHT22;49390;51.380;0.098;2022-12-10T00:04:30;0.30;99.90
63260;DHT22;49390;51.380;0.098;2022-12-10T00:06:58;0.40;99.90
63260;DHT22;49390;51.380;0.098;2022-12-10T00:09:28;0.30;99.90
63260;DHT22;49390;51.380;0.098;2022-12-10T00:11:57;0.40;99.90
63260;DHT22;49390;51.380;0.098;2022-12-10T00:14:26;0.40;99.90
63260;DHT22;49390;51.380;0.098;2022-12-10T00:16:54;0.40;99.90
63260;DHT22;49390;51.380;0.098;2022-12-10T00:19:22;0.40;99.90
63260;DHT22;49390;51.380;0.098;2022-12-10T00:21:50;0.40;99.90
63260;DHT22;49390;51.380;0.098;2022-12-10T00:24:19;0.40;99.90
63260;DHT22;49390;51.380;0.098;2022-12-10T00:26:47;0.50;99.90
63260;DHT22;49390;51.380;0.098;2022-12-10T00:29:16;0.50;99.90
63260;DHT22;49390;51.380;0.098;2022-12-10T00:31:44;0.50;99.90
63260;DHT22;49390;51.380;0.098;2022-12-10T00:34:14;0.50;99.90
63260;DHT22;49390;51.380;0.098;2022-12-10T00:36:44;0.40;99.90
63260;DHT22;49390;51.380;0.098;2022-12-10T00:39:16;0.30;99.90
63260;DHT22;49390;51.380;0.098;2022-12-10T00:41:45;0.40;99.90
63260;DHT22;49390;51.380;0.098;2022-12-10T00:44:14;0.30;99.90
63260;DHT22;49390;51.380;0.098;2022-12-10T00:46:44;0.50;99.90
63260;DHT22;49390;51.380;0.098;2022-12-10T00:49:13;0.30;99.90
63260;DHT22;49390;51.380;0.098;2022-12-10T00:51:42;0.30;99.90
63260;DHT22;49390;51.380;0.098;2022-12-10T00:54:12;0.30;99.90
63260;DHT22;49390;51.380;0.098;2022-12-10T00:56:40;0.30;99.90
63260;DHT22;49390;51.380;0.098;2022-12-10T00:59:08;0.30;99.90
63260;DHT22;49390;51.380;0.098;2022-12-10T01:01:38;0.30;99.90
63260;DHT22;49390;51.380;0.098;2022-12-10T01:04:14;0.30;99.90
63260;DHT22;49390;51.380;0.098;2022-12-10T01:06:45;0.20;99.90
63260;DHT22;49390;51.380;0.098;2022-12-10T01:09:17;0.20;99.90
63260;DHT22;49390;51.380;0.098;2022-12-10T01:11:46;0.20;99.90
63260;DHT22;49390;51.380;0.098;2022-12-10T01:14:22;0.30;99.90
63260;DHT22;49390;51.380;0.098;2022-12-10T01:16:55;0.20;99.90
63260;DHT22;49390;51.380;0.098;2022-12-10T01:19:25;0.20;99.90
63260;DHT22;49390;51.380;0.098;2022-12-10T01:21:56;0.20;99.90
63260;DHT22;49390;51.380;0.098;2022-12-10T01:24:26;0.20;99.90
63260;DHT22;49390;51.380;0.098;2022-12-10T01:26:54;0.20;99.90
63260;DHT22;49390;51.380;0.098;2022-12-10T01:29:23;0.10;99.90
63260;DHT22;49390;51.380;0.098;2022-12-10T01:31:52;0.20;99.90
63260;DHT22;49390;51.380;0.098;2022-12-10T01:34:21;0.10;99.90
63260;DHT22;49390;51.380;0.098;2022-12-10T01:36:52;0.10;99.90
63260;DHT22;49390;51.380;0.098;2022-12-10T01:39:21;0.00;99.90
63260;DHT22;49390;51.380;0.098;2022-12-10T01:41:53;0.00;99.90
63260;DHT22;49390;51.380;0.098;2022-12-10T01:46:51;0.00;99.90
63260;DHT22;49390;51.380;0.098;2022-12-10T01:49:22;0.00;99.90
63260;DHT22;49390;51.380;0.098;2022-12-10T01:51:53;0.10;99.90
63260;DHT22;49390;51.380;0.098;2022-12-10T01:54:28;0.10;99.90
63260;DHT22;49390;51.380;0.098;2022-12-10T01:57:28;0.10;99.90
63260;DHT22;49390;51.380;0.098;2022-12-10T01:59:59;0.10;99.90
63260;DHT22;49390;51.380;0.098;2022-12-10T02:05:39;0.10;99.90
63260;DHT22;49390;51.380;0.098;2022-12-10T02:08:11;0.10;99.90
63260;DHT22;49390;51.380;0.098;2022-12-10T02:16:30;0.00;99.90
63260;DHT22;49390;51.380;0.098;2022-12-10T02:21:49;0.00;99.90
63260;DHT22;49390;51.380;0.098;2022-12-10T02:24:27;-0.10;99.90
63260;DHT22;49390;51.380;0.098;2022-12-10T02:29:46;0.00;99.90
63260;DHT22;49390;51.380;0.098;2022-12-10T02:32:26;0.00;99.90
63260;DHT22;49390;51.380;0.098;2022-12-10T02:35:03;0.00;99.90
63260;DHT22;49390;51.380;0.098;2022-12-10T02:37:55;0.10;99.90
63260;DHT22;49390;51.380;0.098;2022-12-10T02:40:31;0.10;99.90
63260;DHT22;49390;51.380;0.098;2022-12-10T02:43:03;0.10;99.90
63260;DHT22;49390;51.380;0.098;2022-12-10T02:45:32;0.00;99.90
63260;DHT22;49390;51.380;0.098;2022-12-10T02:48:03;0.00;99.90
63260;DHT22;49390;51.380;0.098;2022-12-10T02:50:37;0.00;99.90
63260;DHT22;49390;51.380;0.098;2022-12-10T02:53:06;-0.10;99.90
63260;DHT22;49390;51.380;0.098;2022-12-10T02:58:22;-0.10;99.90
63260;DHT22;49390;51.380;0.098;2022-12-10T03:01:25;-0.10;99.90
63260;DHT22;49390;51.380;0.098;2022-12-10T03:04:01;-0.10;99.90
63260;DHT22;49390;51.380;0.098;2022-12-10T03:06:39;-0.10;99.90
63260;DHT22;49390;51.380;0.098;2022-12-10T03:09:18;-0.10;99.90
63260;DHT22;49390;51.380;0.098;2022-12-10T03:11:49;-0.10;99.90
63260;DHT22;49390;51.380;0.098;2022-12-10T03:14:27;-0.10;99.90
63260;DHT22;49390;51.380;0.098;2022-12-10T03:16:59;-0.20;99.90
63260;DHT22;49390;51.380;0.098;2022-12-10T03:19:37;-0.10;99.90
63260;DHT22;49390;51.380;0.098;2022-12-10T03:22:07;-0.20;99.90
63260;DHT22;49390;51.380;0.098;2022-12-10T03:24:36;-0.20;99.90
63260;DHT22;49390;51.380;0.098;2022-12-10T03:27:05;-0.20;99.90
63260;DHT22;49390;51.380;0.098;2022-12-10T03:29:55;-0.20;99.90
63260;DHT22;49390;51.380;0.098;2022-12-10T03:32:25;-0.20;99.90
63260;DHT22;49390;51.380;0.098;2022-12-10T03:34:58;-0.30;99.90
63260;DHT22;49390;51.380;0.098;2022-12-10T03:37:28;-0.30;99.90
63260;DHT22;49390;51.380;0.098;2022-12-10T03:39:58;-0.30;99.90
63260;DHT22;49390;51.380;0.098;2022-12-10T03:42:26;-0.40;99.90
63260;DHT22;49390;51.380;0.098;2022-12-10T03:44:54;-0.40;99.90
63260;DHT22;49390;51.380;0.098;2022-12-10T03:47:23;-0.40;99.90
63260;DHT22;49390;51.380;0.098;2022-12-10T03:49:52;-0.40;99.90
63260;DHT22;49390;51.380;0.098;2022-12-10T03:52:20;-0.40;99.90
63260;DHT22;49390;51.380;0.098;2022-12-10T03:54:49;-0.40;99.90
63260;DHT22;49390;51.380;0.098;2022-12-10T03:57:17;-0.40;99.90
63260;DHT22;49390;51.380;0.098;2022-12-10T03:59:45;-0.50;99.90
63260;DHT22;49390;51.380;0.098;2022-12-10T04:02:14;-0.40;99.90
63260;DHT22;49390;51.380;0.098;2022-12-10T04:04:42;-0.40;99.90
63260;DHT22;49390;51.380;0.098;2022-12-10T04:07:11;-0.40;99.90
63260;DHT22;49390;51.380;0.098;2022-12-10T04:09:42;-0.40;99.90
63260;DHT22;49390;51.380;0.098;2022-12-10T04:12:10;-0.40;99.90
63260;DHT22;49390;51.380;0.098;2022-12-10T04:14:39;-0.40;99.90
63260;DHT22;49390;51.380;0.098;2022-12-10T04:17:26;-0.50;99.90
63260;DHT22;49390;51.380;0.098;2022-12-10T04:19:54;-0.50;99.90
63260;DHT22;49390;51.380;0.098;2022-12-10T04:22:21;-0.50;99.90
63260;DHT22;49390;51.380;0.098;2022-12-10T04:25:11;-0.60;99.90
63260;DHT22;49390;51.380;0.098;2022-12-10T04:27:57;-0.60;99.90
63260;DHT22;49390;51.380;0.098;2022-12-10T04:30:26;-0.70;99.90
63260;DHT22;49390;51.380;0.098;2022-12-10T04:32:56;-0.70;99.90
63260;DHT22;49390;51.380;0.098;2022-12-10T04:35:24;-0.60;99.90
63260;DHT22;49390;51.380;0.098;2022-12-10T04:37:52;-0.60;99.90
63260;DHT22;49390;51.380;0.098;2022-12-10T04:40:20;-0.60;99.90
63260;DHT22;49390;51.380;0.098;2022-12-10T04:42:48;-0.60;99.90
63260;DHT22;49390;51.380;0.098;2022-12-10T04:45:17;-0.60;99.90
63260;DHT22;49390;51.380;0.098;2022-12-10T04:47:48;-0.50;99.90
63260;DHT22;49390;51.380;0.098;2022-12-10T04:50:16;-0.60;99.90
63260;DHT22;49390;51.380;0.098;2022-12-10T04:52:43;-0.60;99.90
63260;DHT22;49390;51.380;0.098;2022-12-10T04:55:11;-0.60;99.90
63260;DHT22;49390;51.380;0.098;2022-12-10T04:57:39;-0.60;99.90
63260;DHT22;49390;51.380;0.098;2022-12-10T05:00:08;-0.60;99.90
63260;DHT22;49390;51.380;0.098;2022-12-10T05:02:37;-0.60;99.90
63260;DHT22;49390;51.380;0.098;2022-12-10T05:05:06;-0.60;99.90
63260;DHT22;49390;51.380;0.098;2022-12-10T05:07:35;-0.60;99.90
63260;DHT22;49390;51.380;0.098;2022-12-10T05:10:03;-0.70;99.90
63260;DHT22;49390;51.380;0.098;2022-12-10T05:12:32;-0.60;99.90
63260;DHT22;49390;51.380;0.098;2022-12-10T05:15:01;-0.60;99.90
63260;DHT22;49390;51.380;0.098;2022-12-10T05:17:30;-0.60;99.90
63260;DHT22;49390;51.380;0.098;2022-12-10T05:19:58;-0.60;99.90
63260;DHT22;49390;51.380;0.098;2022-12-10T05:22:25;-0.60;99.90
63260;DHT22;49390;51.380;0.098;2022-12-10T05:25:12;-0.60;99.90
63260;DHT22;49390;51.380;0.098;2022-12-10T05:27:40;-0.60;99.90
63260;DHT22;49390;51.380;0.098;2022-12-10T05:30:09;-0.70;99.90
63260;DHT22;49390;51.380;0.098;2022-12-10T05:32:37;-0.70;99.90
63260;DHT22;49390;51.380;0.098;2022-12-10T05:35:06;-0.60;99.90
63260;DHT22;49390;51.380;0.098;2022-12-10T05:37:34;-0.60;99.90
63260;DHT22;49390;51.380;0.098;2022-12-10T05:40:03;-0.60;99.90
63260;DHT22;49390;51.380;0.098;2022-12-10T05:42:31;-0.70;99.90
63260;DHT22;49390;51.380;0.098;2022-12-10T05:45:00;-0.70;99.90
63260;DHT22;49390;51.380;0.098;2022-12-10T05:47:29;-0.70;99.90
63260;DHT22;49390;51.380;0.098;2022-12-10T05:49:57;-0.80;99.90
63260;DHT22;49390;51.380;0.098;2022-12-10T05:52:24;-0.70;99.90
63260;DHT22;49390;51.380;0.098;2022-12-10T05:54:53;-0.70;99.90
63260;DHT22;49390;51.380;0.098;2022-12-10T05:57:21;-0.70;99.90
63260;DHT22;49390;51.380;0.098;2022-12-10T05:59:49;-0.70;99.90
63260;DHT22;49390;51.380;0.098;2022-12-10T06:02:17;-0.70;99.90
63260;DHT22;49390;51.380;0.098;2022-12-10T06:04:48;-0.70;99.90
63260;DHT22;49390;51.380;0.098;2022-12-10T06:07:16;-0.60;99.90
63260;DHT22;49390;51.380;0.098;2022-12-10T06:09:45;-0.60;99.90
63260;DHT22;49390;51.380;0.098;2022-12-10T06:12:13;-0.60;99.90
63260;DHT22;49390;51.380;0.098;2022-12-10T06:14:42;-0.60;99.90
63260;DHT22;49390;51.380;0.098;2022-12-10T06:17:10;-0.70;99.90
63260;DHT22;49390;51.380;0.098;2022-12-10T06:19:38;-0.70;99.90
63260;DHT22;49390;51.380;0.098;2022-12-10T06:22:06;-0.70;99.90
63260;DHT22;49390;51.380;0.098;2022-12-10T06:24:34;-0.70;99.90
63260;DHT22;49390;51.380;0.098;2022-12-10T06:27:02;-0.70;99.90
63260;DHT22;49390;51.380;0.098;2022-12-10T06:29:31;-0.70;99.90
63260;DHT22;49390;51.380;0.098;2022-12-10T06:31:59;-0.70;99.90
63260;DHT22;49390;51.380;0.098;2022-12-10T06:34:28;-0.70;99.90
63260;DHT22;49390;51.380;0.098;2022-12-10T06:36:56;-0.70;99.90
63260;DHT22;49390;51.380;0.098;2022-12-10T06:39:24;-0.70;99.90
63260;DHT22;49390;51.380;0.098;2022-12-10T06:41:54;-0.70;99.90
63260;DHT22;49390;51.380;0.098;2022-12-10T06:44:26;-0.70;99.90
63260;DHT22;49390;51.380;0.098;2022-12-10T06:46:56;-0.70;99.90
63260;DHT22;49390;51.380;0.098;2022-12-10T06:49:25;-0.70;99.90
63260;DHT22;49390;51.380;0.098;2022-12-10T06:51:53;-0.70;99.90
63260;DHT22;49390;51.380;0.098;2022-12-10T06:54:21;-0.70;99.90
63260;DHT22;49390;51.380;0.098;2022-12-10T06:56:49;-0.80;99.90
63260;DHT22;49390;51.380;0.098;2022-12-10T06:59:17;-1.00;99.90
63260;DHT22;49390;51.380;0.098;2022-12-10T07:01:45;-0.80;99.90
63260;DHT22;49390;51.380;0.098;2022-12-10T07:04:13;-0.80;99.90
63260;DHT22;49390;51.380;0.098;2022-12-10T07:06:44;-0.80;99.90
63260;DHT22;49390;51.380;0.098;2022-12-10T07:09:12;-0.80;99.90
63260;DHT22;49390;51.380;0.098;2022-12-10T07:11:40;-0.90;99.90
63260;DHT22;49390;51.380;0.098;2022-12-10T07:14:14;-0.90;99.90
63260;DHT22;49390;51.380;0.098;2022-12-10T07:16:42;-0.80;99.90
63260;DHT22;49390;51.380;0.098;2022-12-10T07:19:12;-0.90;99.90
63260;DHT22;49390;51.380;0.098;2022-12-10T07:21:42;-0.90;99.90
63260;DHT22;49390;51.380;0.098;2022-12-10T07:24:13;-0.90;99.90
63260;DHT22;49390;51.380;0.098;2022-12-10T07:26:42;-0.90;99.90
63260;DHT22;49390;51.380;0.098;2022-12-10T07:29:19;-0.90;99.90
63260;DHT22;49390;51.380;0.098;2022-12-10T07:31:48;-0.90;99.90
63260;DHT22;49390;51.380;0.098;2022-12-10T07:34:17;-1.00;99.90
63260;DHT22;49390;51.380;0.098;2022-12-10T07:36:45;-1.00;99.90
63260;DHT22;49390;51.380;0.098;2022-12-10T07:39:15;-1.00;99.90
63260;DHT22;49390;51.380;0.098;2022-12-10T07:41:49;-1.00;99.90
63260;DHT22;49390;51.380;0.098;2022-12-10T07:44:24;-1.10;99.90
63260;DHT22;49390;51.380;0.098;2022-12-10T07:46:54;-1.10;99.90
63260;DHT22;49390;51.380;0.098;2022-12-10T07:49:22;-1.10;99.90
63260;DHT22;49390;51.380;0.098;2022-12-10T07:51:53;-1.00;99.90
63260;DHT22;49390;51.380;0.098;2022-12-10T07:54:24;-1.10;99.90
63260;DHT22;49390;51.380;0.098;2022-12-10T07:56:51;-1.00;99.90
63260;DHT22;49390;51.380;0.098;2022-12-10T07:59:19;-1.10;99.90
63260;DHT22;49390;51.380;0.098;2022-12-10T08:01:50;-1.10;99.90
63260;DHT22;49390;51.380;0.098;2022-12-10T08:04:21;-1.10;99.90
63260;DHT22;49390;51.380;0.098;2022-12-10T08:06:49;-1.00;99.90
63260;DHT22;49390;51.380;0.098;2022-12-10T08:09:17;-1.00;99.90
63260;DHT22;49390;51.380;0.098;2022-12-10T08:11:45;-1.00;99.90
63260;DHT22;49390;51.380;0.098;2022-12-10T08:14:13;-0.90;99.90
63260;DHT22;49390;51.380;0.098;2022-12-10T08:16:41;-1.00;99.90
63260;DHT22;49390;51.380;0.098;2022-12-10T08:19:10;-0.90;99.90
63260;DHT22;49390;51.380;0.098;2022-12-10T08:21:46;-1.00;99.90
63260;DHT22;49390;51.380;0.098;2022-12-10T08:24:14;-1.00;99.90
63260;DHT22;49390;51.380;0.098;2022-12-10T08:26:43;-0.90;99.90
63260;DHT22;49390;51.380;0.098;2022-12-10T08:29:12;-0.90;99.90
63260;DHT22;49390;51.380;0.098;2022-12-10T08:31:40;-1.00;99.90
63260;DHT22;49390;51.380;0.098;2022-12-10T08:34:16;-0.90;99.90
63260;DHT22;49390;51.380;0.098;2022-12-10T08:36:46;-0.90;99.90
63260;DHT22;49390;51.380;0.098;2022-12-10T08:39:14;-0.90;99.90
63260;DHT22;49390;51.380;0.098;2022-12-10T08:41:46;-0.80;99.90
63260;DHT22;49390;51.380;0.098;2022-12-10T08:44:15;-0.80;99.90
63260;DHT22;49390;51.380;0.098;2022-12-10T08:46:43;-0.70;99.90
63260;DHT22;49390;51.380;0.098;2022-12-10T08:49:12;-0.70;99.90
63260;DHT22;49390;51.380;0.098;2022-12-10T08:51:42;-0.70;99.90
63260;DHT22;49390;51.380;0.098;2022-12-10T08:54:10;-0.70;99.90
63260;DHT22;49390;51.380;0.098;2022-12-10T08:56:39;-0.60;99.90
63260;DHT22;49390;51.380;0.098;2022-12-10T08:59:07;-0.60;99.90
63260;DHT22;49390;51.380;0.098;2022-12-10T09:01:35;-0.50;99.90
63260;DHT22;49390;51.380;0.098;2022-12-10T09:04:07;-0.40;99.90
63260;DHT22;49390;51.380;0.098;2022-12-10T09:06:35;-0.40;99.90
63260;DHT22;49390;51.380;0.098;2022-12-10T09:09:03;-0.30;99.90
63260;DHT22;49390;51.380;0.098;2022-12-10T09:11:33;-0.20;99.90
63260;DHT22;49390;51.380;0.098;2022-12-10T09:14:02;-0.10;99.90
63260;DHT22;49390;51.380;0.098;2022-12-10T09:16:37;0.00;99.90
63260;DHT22;49390;51.380;0.098;2022-12-10T09:19:07;0.10;99.90
63260;DHT22;49390;51.380;0.098;2022-12-10T09:21:35;0.20;99.90
63260;DHT22;49390;51.380;0.098;2022-12-10T09:24:04;0.30;99.90
63260;DHT22;49390;51.380;0.098;2022-12-10T09:26:33;0.40;99.90
63260;DHT22;49390;51.380;0.098;2022-12-10T09:29:01;0.50;99.90
63260;DHT22;49390;51.380;0.098;2022-12-10T09:31:29;0.60;99.90
63260;DHT22;49390;51.380;0.098;2022-12-10T09:33:58;0.70;99.90
63260;DHT22;49390;51.380;0.098;2022-12-10T09:36:26;0.70;99.90
63260;DHT22;49390;51.380;0.098;2022-12-10T09:39:03;0.80;99.90
63260;DHT22;49390;51.380;0.098;2022-12-10T09:44:47;0.90;99.90
63260;DHT22;49390;51.380;0.098;2022-12-10T09:47:23;1.00;99.90
63260;DHT22;49390;51.380;0.098;2022-12-10T09:52:51;1.00;99.90
63260;DHT22;49390;51.380;0.098;2022-12-10T09:55:35;1.20;99.90
63260;DHT22;49390;51.380;0.098;2022-12-10T09:58:05;1.20;99.90
63260;DHT22;49390;51.380;0.098;2022-12-10T10:00:42;1.30;99.90
63260;DHT22;49390;51.380;0.098;2022-12-10T10:03:15;1.40;99.90
63260;DHT22;49390;51.380;0.098;2022-12-10T10:05:50;1.40;99.90
63260;DHT22;49390;51.380;0.098;2022-12-10T10:08:28;1.50;99.90
63260;DHT22;49390;51.380;0.098;2022-12-10T10:11:03;1.60;99.90
63260;DHT22;49390;51.380;0.098;2022-12-10T10:13:38;1.70;99.90
63260;DHT22;49390;51.380;0.098;2022-12-10T10:18:56;1.90;99.90
63260;DHT22;49390;51.380;0.098;2022-12-10T10:21:30;2.00;99.90
63260;DHT22;49390;51.380;0.098;2022-12-10T10:24:00;2.10;99.90
63260;DHT22;49390;51.380;0.098;2022-12-10T10:26:33;2.20;99.90
63260;DHT22;49390;51.380;0.098;2022-12-10T10:29:03;2.20;99.90
63260;DHT22;49390;51.380;0.098;2022-12-10T10:31:34;2.30;99.90
63260;DHT22;49390;51.380;0.098;2022-12-10T10:34:05;2.40;99.90
63260;DHT22;49390;51.380;0.098;2022-12-10T10:36:38;2.50;99.90
63260;DHT22;49390;51.380;0.098;2022-12-10T10:41:51;2.70;99.90
63260;DHT22;49390;51.380;0.098;2022-12-10T10:44:34;2.80;99.90
63260;DHT22;49390;51.380;0.098;2022-12-10T10:47:30;2.90;99.90
63260;DHT22;49390;51.380;0.098;2022-12-10T10:50:04;2.90;99.90
63260;DHT22;49390;51.380;0.098;2022-12-10T10:52:38;3.00;99.90
63260;DHT22;49390;51.380;0.098;2022-12-10T10:55:32;3.10;99.90
63260;DHT22;49390;51.380;0.098;2022-12-10T10:58:04;3.10;99.90
63260;DHT22;49390;51.380;0.098;2022-12-10T11:00:32;3.20;99.90
63260;DHT22;49390;51.380;0.098;2022-12-10T11:03:01;3.30;99.90
63260;DHT22;49390;51.380;0.098;2022-12-10T11:05:33;3.30;99.90
63260;DHT22;49390;51.380;0.098;2022-12-10T11:08:06;3.40;99.90
63260;DHT22;49390;51.380;0.098;2022-12-10T11:10:51;3.50;99.90
63260;DHT22;49390;51.380;0.098;2022-12-10T11:13:25;3.50;99.90
63260;DHT22;49390;51.380;0.098;2022-12-10T11:16:10;3.60;99.90
63260;DHT22;49390;51.380;0.098;2022-12-10T11:18:57;3.70;99.90
63260;DHT22;49390;51.380;0.098;2022-12-10T11:21:31;3.70;99.90
63260;DHT22;49390;51.380;0.098;2022-12-10T11:24:00;3.80;99.90
63260;DHT22;49390;51.380;0.098;2022-12-10T11:38:27;4.00;99.90
63260;DHT22;49390;51.380;0.098;2022-12-10T11:41:14;4.00;99.90
63260;DHT22;49390;51.380;0.098;2022-12-10T11:49:50;4.20;99.90
63260;DHT22;49390;51.380;0.098;2022-12-10T11:52:39;4.20;99.90
63260;DHT22;49390;51.380;0.098;2022-12-10T11:55:37;4.30;99.90
63260;DHT22;49390;51.380;0.098;2022-12-10T12:01:35;4.50;99.90
63260;DHT22;49390;51.380;0.098;2022-12-10T12:13:40;4.80;99.90
63260;DHT22;49390;51.380;0.098;2022-12-10T12:16:19;5.00;99.90
63260;DHT22;49390;51.380;0.098;2022-12-10T12:19:05;5.00;99.90
63260;DHT22;49390;51.380;0.098;2022-12-10T12:21:38;5.10;99.90
63260;DHT22;49390;51.380;0.098;2022-12-10T12:24:35;5.20;99.90
63260;DHT22;49390;51.380;0.098;2022-12-10T12:27:31;5.20;99.90
63260;DHT22;49390;51.380;0.098;2022-12-10T12:30:05;5.30;99.90
63260;DHT22;49390;51.380;0.098;2022-12-10T12:35:22;5.30;99.90
63260;DHT22;49390;51.380;0.098;2022-12-10T12:37:58;5.40;99.90
63260;DHT22;49390;51.380;0.098;2022-12-10T12:40:29;5.40;99.90
63260;DHT22;49390;51.380;0.098;2022-12-10T12:43:03;5.50;99.90
63260;DHT22;49390;51.380;0.098;2022-12-10T12:45:40;5.50;99.90
63260;DHT22;49390;51.380;0.098;2022-12-10T12:51:16;5.60;99.90
63260;DHT22;49390;51.380;0.098;2022-12-10T12:53:45;5.60;99.90
63260;DHT22;49390;51.380;0.098;2022-12-10T12:56:20;5.60;99.90
63260;DHT22;49390;51.380;0.098;2022-12-10T12:59:22;5.60;99.90
63260;DHT22;49390;51.380;0.098;2022-12-10T13:01:57;5.70;99.90
63260;DHT22;49390;51.380;0.098;2022-12-10T13:04:29;5.70;99.90
63260;DHT22;49390;51.380;0.098;2022-12-10T13:09:51;5.80;99.90
63260;DHT22;49390;51.380;0.098;2022-12-10T13:12:52;5.80;99.90
63260;DHT22;49390;51.380;0.098;2022-12-10T13:15:37;5.80;99.90
63260;DHT22;49390;51.380;0.098;2022-12-10T13:23:51;5.80;99.90
63260;DHT22;49390;51.380;0.098;2022-12-10T13:26:29;5.70;99.90
63260;DHT22;49390;51.380;0.098;2022-12-10T13:32:04;5.50;99.90
63260;DHT22;49390;51.380;0.098;2022-12-10T13:34:41;5.40;99.90
63260;DHT22;49390;51.380;0.098;2022-12-10T13:39:59;5.20;99.90
63260;DHT22;49390;51.380;0.098;2022-12-10T13:42:32;5.10;99.90
63260;DHT22;49390;51.380;0.098;2022-12-10T13:47:51;5.00;99.90
63260;DHT22;49390;51.380;0.098;2022-12-10T13:53:22;4.80;99.90
63260;DHT22;49390;51.380;0.098;2022-12-10T14:05:14;4.90;99.90
63260;DHT22;49390;51.380;0.098;2022-12-10T14:07:49;5.00;99.90
63260;DHT22;49390;51.380;0.098;2022-12-10T14:10:26;5.00;99.90
63260;DHT22;49390;51.380;0.098;2022-12-10T14:12:54;5.10;99.90
63260;DHT22;49390;51.380;0.098;2022-12-10T14:15:24;5.20;99.90
63260;DHT22;49390;51.380;0.098;2022-12-10T14:18:08;5.30;99.90
63260;DHT22;49390;51.380;0.098;2022-12-10T14:20:43;5.30;99.90
63260;DHT22;49390;51.380;0.098;2022-12-10T14:23:29;5.40;99.90
63260;DHT22;49390;51.380;0.098;2022-12-10T14:28:53;5.40;99.90
63260;DHT22;49390;51.380;0.098;2022-12-10T14:31:32;5.40;99.90
63260;DHT22;49390;51.380;0.098;2022-12-10T14:34:04;5.40;99.90
63260;DHT22;49390;51.380;0.098;2022-12-10T14:36:37;5.40;99.90
63260;DHT22;49390;51.380;0.098;2022-12-10T14:39:22;5.30;99.90
63260;DHT22;49390;51.380;0.098;2022-12-10T14:41:56;5.30;99.90
63260;DHT22;49390;51.380;0.098;2022-12-10T14:44:25;5.30;99.90
63260;DHT22;49390;51.380;0.098;2022-12-10T14:47:14;5.30;99.90
63260;DHT22;49390;51.380;0.098;2022-12-10T14:49:46;5.30;99.90
63260;DHT22;49390;51.380;0.098;2022-12-10T14:52:20;5.20;99.90
63260;DHT22;49390;51.380;0.098;2022-12-10T14:54:49;5.20;99.90
63260;DHT22;49390;51.380;0.098;2022-12-10T14:57:25;5.20;99.90
63260;DHT22;49390;51.380;0.098;2022-12-10T15:00:16;5.20;99.90
63260;DHT22;49390;51.380;0.098;2022-12-10T15:02:55;5.20;99.90
63260;DHT22;49390;51.380;0.098;2022-12-10T15:05:29;5.10;99.90
63260;DHT22;49390;51.380;0.098;2022-12-10T15:08:04;5.10;99.90
63260;DHT22;49390;51.380;0.098;2022-12-10T15:10:42;5.10;99.90
63260;DHT22;49390;51.380;0.098;2022-12-10T15:13:24;5.00;99.90
63260;DHT22;49390;51.380;0.098;2022-12-10T15:15:54;5.00;99.90
63260;DHT22;49390;51.380;0.098;2022-12-10T15:18:37;5.00;99.90
63260;DHT22;49390;51.380;0.098;2022-12-10T15:21:25;5.00;99.90
63260;DHT22;49390;51.380;0.098;2022-12-10T15:24:14;4.90;99.90
63260;DHT22;49390;51.380;0.098;2022-12-10T15:26:57;4.90;99.90
63260;DHT22;49390;51.380;0.098;2022-12-10T15:29:38;4.80;99.90
63260;DHT22;49390;51.380;0.098;2022-12-10T15:32:26;4.80;99.90
63260;DHT22;49390;51.380;0.098;2022-12-10T15:35:05;4.70;99.90
63260;DHT22;49390;51.380;0.098;2022-12-10T15:37:53;4.70;99.90
63260;DHT22;49390;51.380;0.098;2022-12-10T15:41:19;4.60;99.90
63260;DHT22;49390;51.380;0.098;2022-12-10T15:47:48;4.50;99.90
63260;DHT22;49390;51.380;0.098;2022-12-10T15:50:28;4.40;99.90
63260;DHT22;49390;51.380;0.098;2022-12-10T15:53:26;4.30;99.90
63260;DHT22;49390;51.380;0.098;2022-12-10T15:56:37;4.20;99.90
63260;DHT22;49390;51.380;0.098;2022-12-10T15:59:27;4.10;99.90
63260;DHT22;49390;51.380;0.098;2022-12-10T16:02:39;4.10;99.90
63260;DHT22;49390;51.380;0.098;2022-12-10T16:06:03;3.90;99.90
63260;DHT22;49390;51.380;0.098;2022-12-10T16:08:32;3.90;99.90
63260;DHT22;49390;51.380;0.098;2022-12-10T16:11:15;3.80;99.90
63260;DHT22;49390;51.380;0.098;2022-12-10T16:13:49;3.70;99.90
63260;DHT22;49390;51.380;0.098;2022-12-10T16:16:27;3.60;99.90
63260;DHT22;49390;51.380;0.098;2022-12-10T16:18:57;3.60;99.90
63260;DHT22;49390;51.380;0.098;2022-12-10T16:21:38;3.50;99.90
63260;DHT22;49390;51.380;0.098;2022-12-10T16:24:23;3.40;99.90
63260;DHT22;49390;51.380;0.098;2022-12-10T16:26:57;3.40;99.90
63260;DHT22;49390;51.380;0.098;2022-12-10T16:29:29;3.40;99.90
63260;DHT22;49390;51.380;0.098;2022-12-10T16:32:05;3.30;99.90
63260;DHT22;49390;51.380;0.098;2022-12-10T16:34:43;3.30;99.90
63260;DHT22;49390;51.380;0.098;2022-12-10T16:37:18;3.20;99.90
63260;DHT22;49390;51.380;0.098;2022-12-10T16:39:53;3.10;99.90
63260;DHT22;49390;51.380;0.098;2022-12-10T16:42:32;3.10;99.90
63260;DHT22;49390;51.380;0.098;2022-12-10T16:45:14;3.00;99.90
63260;DHT22;49390;51.380;0.098;2022-12-10T16:47:49;3.00;99.90
63260;DHT22;49390;51.380;0.098;2022-12-10T16:50:24;2.90;99.90
63260;DHT22;49390;51.380;0.098;2022-12-10T16:53:29;2.80;99.90
63260;DHT22;49390;51.380;0.098;2022-12-10T16:56:02;2.70;99.90
63260;DHT22;49390;51.380;0.098;2022-12-10T16:59:05;2.70;99.90
63260;DHT22;49390;51.380;0.098;2022-12-10T17:01:57;2.60;99.90
63260;DHT22;49390;51.380;0.098;2022-12-10T17:04:36;2.60;99.90
63260;DHT22;49390;51.380;0.098;2022-12-10T17:07:16;2.60;99.90
63260;DHT22;49390;51.380;0.098;2022-12-10T17:10:18;2.60;99.90
63260;DHT22;49390;51.380;0.098;2022-12-10T17:13:22;2.60;99.90
63260;DHT22;49390;51.380;0.098;2022-12-10T17:16:01;2.60;99.90
63260;DHT22;49390;51.380;0.098;2022-12-10T17:18:41;2.60;99.90
63260;DHT22;49390;51.380;0.098;2022-12-10T17:21:20;2.60;99.90
63260;DHT22;49390;51.380;0.098;2022-12-10T17:23:55;2.50;99.90
63260;DHT22;49390;51.380;0.098;2022-12-10T17:26:36;2.50;99.90
63260;DHT22;49390;51.380;0.098;2022-12-10T17:29:35;2.40;99.90
63260;DHT22;49390;51.380;0.098;2022-12-10T17:32:29;2.30;99.90
63260;DHT22;49390;51.380;0.098;2022-12-10T17:35:18;2.20;99.90
63260;DHT22;49390;51.380;0.098;2022-12-10T17:38:31;2.20;99.90
63260;DHT22;49390;51.380;0.098;2022-12-10T17:41:10;2.10;99.90
63260;DHT22;49390;51.380;0.098;2022-12-10T17:43:42;2.00;99.90
63260;DHT22;49390;51.380;0.098;2022-12-10T17:46:25;1.90;99.90
63260;DHT22;49390;51.380;0.098;2022-12-10T17:49:03;1.90;99.90
63260;DHT22;49390;51.380;0.098;2022-12-10T17:52:07;1.90;99.90
63260;DHT22;49390;51.380;0.098;2022-12-10T17:56:15;1.80;99.90
63260;DHT22;49390;51.380;0.098;2022-12-10T17:59:09;1.70;99.90
63260;DHT22;49390;51.380;0.098;2022-12-10T18:02:41;1.70;99.90
63260;DHT22;49390;51.380;0.098;2022-12-10T18:06:13;1.70;99.90
63260;DHT22;49390;51.380;0.098;2022-12-10T18:08:51;1.70;99.90
63260;DHT22;49390;51.380;0.098;2022-12-10T18:11:39;1.70;99.90
63260;DHT22;49390;51.380;0.098;2022-12-10T18:14:19;1.70;99.90